Time;durP1;ratioP1;P1;durP2;ratioP2;P2;SDS_P1;SDS_P2;PMS_P1;PMS_P2;Temp;Humidity;BMP_temperature;BMP_pressure;BME280_temperature;BME280_humidity;BME280_pressure;Samples;Min_cycle;Max_cycle;Signal;HPM_P1;HPM_P2
2021/12/11 00:00:40;;;;;;;0.95;0.70;;;0.60;99.20;;;;;;2088112;28;20240;-70
2021/12/11 00:01:49;;;;;;;1.38;0.70;;;0.60;99.50;;;;;;2091098;28;20184;-71
2021/12/11 00:03:04;;;;;;;2.15;0.82;;;0.50;99.60;;;;;;2088797;28;20188;-71
2021/12/11 00:04:13;;;;;;;0.90;0.63;;;0.50;99.70;;;;;;2088241;28;20230;-71
2021/12/11 00:05:16;;;;;;;0.77;0.77;;;0.50;99.80;;;;;;2088500;28;20258;-70
2021/12/11 00:06:27;;;;;;;0.50;0.50;;;0.50;99.90;;;;;;2088208;28;20189;-69
2021/12/11 00:07:29;;;;;;;0.65;0.65;;;0.50;99.90;;;;;;2088135;28;20574;-70
2021/12/11 00:08:32;;;;;;;1.27;0.80;;;0.50;99.90;;;;;;2088117;28;20185;-70
2021/12/11 00:09:44;;;;;;;1.17;1.08;;;0.50;99.80;;;;;;2080159;28;20215;-70
2021/12/11 00:10:51;;;;;;;0.70;0.60;;;0.60;99.80;;;;;;2081353;28;20169;-70
2021/12/11 00:12:00;;;;;;;1.45;0.70;;;0.50;99.90;;;;;;2089465;28;20248;-72
2021/12/11 00:13:07;;;;;;;2.38;0.75;;;0.60;99.70;;;;;;2084233;28;20252;-70
2021/12/11 00:14:12;;;;;;;1.20;0.68;;;0.60;99.90;;;;;;2089106;28;20597;-68
2021/12/11 00:15:19;;;;;;;2.35;0.90;;;0.50;99.90;;;;;;2088459;28;20683;-71
2021/12/11 00:16:22;;;;;;;1.02;0.82;;;0.50;99.90;;;;;;2079828;28;20169;-69
2021/12/11 00:17:31;;;;;;;0.88;0.88;;;0.50;99.90;;;;;;2079874;28;20183;-67
2021/12/11 00:18:33;;;;;;;1.38;0.70;;;0.50;99.90;;;;;;2089295;28;20173;-69
2021/12/11 00:19:39;;;;;;;0.70;0.70;;;0.50;99.90;;;;;;2088664;28;20176;-69
2021/12/11 00:20:50;;;;;;;2.25;0.80;;;0.50;99.90;;;;;;2081170;28;20173;-69
2021/12/11 00:21:53;;;;;;;1.05;0.98;;;0.50;99.90;;;;;;2088317;28;20176;-69
2021/12/11 00:22:55;;;;;;;0.82;0.73;;;0.50;99.90;;;;;;2088834;28;20184;-69
2021/12/11 00:24:12;;;;;;;1.23;0.70;;;0.50;99.90;;;;;;2088502;28;20203;-69
2021/12/11 00:25:16;;;;;;;0.60;0.60;;;0.50;99.90;;;;;;2088790;28;20627;-69
2021/12/11 00:26:32;;;;;;;2.08;0.52;;;0.50;99.90;;;;;;2088720;28;20189;-69
2021/12/11 00:27:40;;;;;;;1.55;0.80;;;0.50;99.90;;;;;;2089223;28;20696;-69
2021/12/11 00:28:50;;;;;;;0.70;0.70;;;0.50;99.90;;;;;;2088708;28;20218;-69
2021/12/11 00:29:51;;;;;;;0.65;0.50;;;0.50;99.90;;;;;;2088673;28;20209;-69
2021/12/11 00:30:53;;;;;;;1.70;0.65;;;0.50;99.90;;;;;;2088522;28;20180;-68
2021/12/11 00:32:02;;;;;;;1.38;0.65;;;0.50;99.90;;;;;;2088657;28;20267;-69
2021/12/11 00:33:15;;;;;;;0.60;0.60;;;0.50;99.90;;;;;;2088872;28;20668;-69
2021/12/11 00:34:19;;;;;;;0.65;0.65;;;0.50;99.90;;;;;;2089325;28;20157;-69
2021/12/11 00:35:23;;;;;;;1.23;0.80;;;0.50;99.90;;;;;;2088686;28;20531;-69
2021/12/11 00:36:32;;;;;;;1.30;0.95;;;0.50;99.90;;;;;;2087922;28;20184;-70
2021/12/11 00:37:34;;;;;;;1.52;0.70;;;0.50;99.80;;;;;;2081130;28;20283;-69
2021/12/11 00:38:35;;;;;;;2.80;0.88;;;0.50;99.60;;;;;;2079905;28;20719;-69
2021/12/11 00:39:51;;;;;;;1.10;0.50;;;0.50;99.70;;;;;;2087942;28;20220;-68
2021/12/11 00:40:54;;;;;;;0.50;0.50;;;0.60;99.90;;;;;;2089030;28;20173;-69
2021/12/11 00:42:00;;;;;;;0.70;0.70;;;0.50;99.90;;;;;;2089384;28;20579;-69
2021/12/11 00:43:04;;;;;;;0.45;0.45;;;0.50;99.90;;;;;;2089371;28;20255;-68
2021/12/11 00:44:07;;;;;;;0.60;0.60;;;0.60;99.60;;;;;;2088801;28;20192;-70
2021/12/11 00:45:14;;;;;;;0.70;0.70;;;0.50;99.50;;;;;;2088735;28;20178;-70
2021/12/11 00:46:23;;;;;;;0.73;0.70;;;0.60;99.70;;;;;;2081513;28;20222;-69
2021/12/11 00:47:30;;;;;;;2.63;0.60;;;0.50;99.80;;;;;;2088519;28;20168;-69
2021/12/11 00:48:31;;;;;;;0.95;0.75;;;0.60;99.50;;;;;;2088783;28;20252;-69
2021/12/11 00:49:32;;;;;;;1.45;0.70;;;0.60;99.30;;;;;;2088693;28;20593;-69
2021/12/11 00:50:57;;;;;;;0.70;0.67;;;0.60;99.30;;;;;;2088484;28;20238;-69
2021/12/11 00:51:58;;;;;;;0.50;0.43;;;0.60;99.40;;;;;;2088866;28;20173;-70
2021/12/11 00:53:27;;;;;;;1.25;0.90;;;0.60;98.90;;;;;;2088626;28;20224;-69
2021/12/11 00:54:28;;;;;;;2.13;0.50;;;0.60;99.10;;;;;;2089113;28;20176;-69
2021/12/11 00:55:37;;;;;;;6.23;0.90;;;0.60;98.60;;;;;;2089230;28;20563;-69
2021/12/11 00:56:39;;;;;;;0.60;0.60;;;0.60;98.40;;;;;;2089173;28;20199;-69
2021/12/11 00:57:40;;;;;;;1.05;0.80;;;0.60;98.70;;;;;;2089218;28;20226;-70
2021/12/11 00:58:42;;;;;;;0.60;0.60;;;0.60;98.60;;;;;;2089277;28;20187;-69
2021/12/11 00:59:43;;;;;;;0.63;0.60;;;0.60;98.40;;;;;;2089760;28;20188;-69
2021/12/11 01:01:06;;;;;;;1.10;0.83;;;0.60;98.50;;;;;;2090631;28;20249;-69
2021/12/11 01:02:08;;;;;;;0.60;0.60;;;0.60;98.70;;;;;;2090746;28;20172;-70
2021/12/11 01:03:13;;;;;;;2.17;0.70;;;0.60;98.70;;;;;;2090680;28;20191;-69
2021/12/11 01:04:23;;;;;;;1.63;0.93;;;0.60;98.50;;;;;;2090690;28;20267;-69
2021/12/11 01:05:24;;;;;;;1.45;0.82;;;0.60;98.50;;;;;;2090117;28;20635;-69
2021/12/11 01:06:50;;;;;;;1.80;0.80;;;0.60;98.70;;;;;;2090056;28;20211;-69
2021/12/11 01:07:52;;;;;;;0.77;0.77;;;0.60;98.90;;;;;;2090748;28;20200;-69
2021/12/11 01:09:02;;;;;;;1.50;0.82;;;0.60;98.90;;;;;;2098226;28;20171;-69
2021/12/11 01:10:24;;;;;;;0.73;0.63;;;0.60;99.00;;;;;;2097120;28;20395;-69
2021/12/11 01:11:31;;;;;;;0.70;0.70;;;0.60;98.90;;;;;;2090471;28;20220;-69
2021/12/11 01:12:43;;;;;;;1.00;0.68;;;0.60;99.00;;;;;;2089999;28;20644;-69
2021/12/11 01:14:06;;;;;;;1.17;0.60;;;0.70;99.10;;;;;;2090204;28;20181;-71
2021/12/11 01:15:31;;;;;;;1.83;0.90;;;0.60;99.10;;;;;;2090678;28;20165;-69
2021/12/11 01:16:33;;;;;;;0.80;0.80;;;0.60;99.20;;;;;;2090656;28;20160;-69
2021/12/11 01:17:49;;;;;;;1.90;0.90;;;0.60;99.40;;;;;;2089728;28;20200;-69
2021/12/11 01:18:58;;;;;;;0.95;0.73;;;0.60;99.40;;;;;;2083880;28;20195;-70
2021/12/11 01:20:10;;;;;;;1.63;0.70;;;0.70;99.30;;;;;;2083376;28;20165;-69
2021/12/11 01:22:34;;;;;;;1.65;0.63;;;0.60;99.60;;;;;;2090205;28;20172;-70
2021/12/11 01:24:45;;;;;;;1.33;0.85;;;0.60;99.70;;;;;;2090131;28;20238;-69
2021/12/11 01:25:46;;;;;;;1.33;0.70;;;0.60;99.90;;;;;;2089851;28;20187;-69
2021/12/11 01:26:52;;;;;;;0.93;0.83;;;0.60;99.80;;;;;;2090401;28;20185;-69
2021/12/11 01:27:59;;;;;;;1.88;0.82;;;0.60;99.90;;;;;;2090538;28;20469;-69
2021/12/11 01:29:00;;;;;;;2.38;0.90;;;0.60;99.90;;;;;;2089938;28;20169;-69
2021/12/11 01:30:04;;;;;;;1.08;0.70;;;0.60;99.90;;;;;;2089712;28;20177;-70
2021/12/11 01:31:09;;;;;;;0.70;0.68;;;0.60;99.90;;;;;;2090402;28;20310;-71
2021/12/11 01:32:12;;;;;;;3.35;1.10;;;0.60;99.90;;;;;;2090517;28;20736;-70
2021/12/11 01:33:13;;;;;;;1.67;0.80;;;0.50;99.90;;;;;;2098218;28;20311;-70
2021/12/11 01:34:14;;;;;;;2.78;1.00;;;0.50;99.90;;;;;;2097985;28;20579;-70
2021/12/11 01:35:17;;;;;;;1.45;1.00;;;0.60;99.90;;;;;;2089994;28;20191;-70
2021/12/11 01:36:18;;;;;;;0.82;0.77;;;0.50;99.90;;;;;;2081723;28;20644;-70
2021/12/11 01:37:19;;;;;;;1.30;0.90;;;0.50;99.90;;;;;;2089818;28;20184;-70
2021/12/11 01:38:27;;;;;;;1.13;0.93;;;0.50;99.90;;;;;;2090533;28;20427;-71
2021/12/11 01:39:33;;;;;;;1.50;1.00;;;0.50;99.90;;;;;;2090542;28;20161;-71
2021/12/11 01:40:35;;;;;;;1.35;0.82;;;0.60;99.90;;;;;;2090445;28;20165;-71
2021/12/11 01:41:37;;;;;;;1.60;1.00;;;0.50;99.90;;;;;;2089738;28;20271;-70
2021/12/11 01:42:41;;;;;;;1.27;1.05;;;0.50;99.90;;;;;;2089839;28;20188;-70
2021/12/11 01:43:43;;;;;;;0.90;0.80;;;0.50;99.90;;;;;;2090451;28;20184;-70
2021/12/11 01:44:47;;;;;;;2.67;0.80;;;0.50;99.90;;;;;;2089696;28;20189;-71
2021/12/11 01:45:51;;;;;;;1.52;0.85;;;0.50;99.90;;;;;;2089757;28;20672;-71
2021/12/11 01:47:05;;;;;;;0.98;0.80;;;0.50;99.90;;;;;;2090151;28;20198;-69
2021/12/11 01:48:06;;;;;;;2.05;0.73;;;0.50;99.90;;;;;;2090253;28;20737;-68
2021/12/11 01:49:20;;;;;;;1.50;0.70;;;0.50;99.90;;;;;;2090022;28;20204;-69
2021/12/11 01:50:29;;;;;;;1.30;0.90;;;0.50;99.90;;;;;;2090322;28;20224;-70
2021/12/11 01:51:55;;;;;;;1.02;0.70;;;0.50;99.90;;;;;;2090183;28;20215;-71
2021/12/11 01:53:09;;;;;;;0.90;0.90;;;0.50;99.90;;;;;;2089990;28;20196;-70
2021/12/11 01:54:22;;;;;;;1.02;0.80;;;0.50;99.90;;;;;;2097931;28;20171;-70
2021/12/11 01:55:29;;;;;;;0.80;0.80;;;0.60;99.90;;;;;;2096477;28;20180;-69
2021/12/11 01:56:32;;;;;;;0.98;0.93;;;0.50;99.90;;;;;;2090344;28;20149;-71
2021/12/11 01:57:33;;;;;;;1.63;0.85;;;0.50;99.90;;;;;;2089470;28;20291;-72
2021/12/11 01:58:49;;;;;;;1.07;0.83;;;0.50;99.90;;;;;;2089682;28;20177;-71
2021/12/11 02:00:12;;;;;;;2.65;1.00;;;0.50;99.90;;;;;;2089652;28;20257;-69
2021/12/11 02:01:20;;;;;;;1.65;0.85;;;0.50;99.90;;;;;;2090078;28;20249;-69
2021/12/11 02:02:35;;;;;;;0.95;0.85;;;0.50;99.90;;;;;;2090345;28;20252;-69
2021/12/11 02:03:37;;;;;;;2.72;0.90;;;0.50;99.90;;;;;;2090294;28;20172;-69
2021/12/11 02:04:46;;;;;;;1.90;1.00;;;0.40;99.90;;;;;;2089727;28;20180;-70
2021/12/11 02:05:48;;;;;;;1.05;0.90;;;0.50;99.90;;;;;;2089666;28;20570;-69
2021/12/11 02:06:53;;;;;;;1.52;0.80;;;0.50;99.90;;;;;;2090295;28;20177;-69
2021/12/11 02:07:57;;;;;;;1.50;1.00;;;0.50;99.90;;;;;;2090102;28;20200;-69
2021/12/11 02:09:05;;;;;;;0.98;0.88;;;0.50;99.90;;;;;;2090220;28;20176;-71
2021/12/11 02:10:36;;;;;;;0.80;0.80;;;0.50;99.90;;;;;;2089053;28;20626;-72
2021/12/11 02:11:36;;;;;;;3.00;1.00;;;0.60;99.90;;;;;;2089395;28;20585;-70
2021/12/11 02:12:41;;;;;;;1.63;0.87;;;0.60;99.90;;;;;;2089485;28;20188;-71
2021/12/11 02:13:52;;;;;;;0.63;0.63;;;0.60;99.90;;;;;;2090116;28;20177;-70
2021/12/11 02:14:54;;;;;;;1.00;0.90;;;0.50;99.90;;;;;;2089670;28;20343;-70
2021/12/11 02:15:56;;;;;;;0.93;0.80;;;0.50;99.90;;;;;;2089558;28;20739;-70
2021/12/11 02:16:58;;;;;;;0.85;0.80;;;0.50;99.90;;;;;;2089979;28;20238;-71
2021/12/11 02:18:16;;;;;;;1.17;0.80;;;0.50;99.90;;;;;;2090186;28;20276;-70
2021/12/11 02:19:31;;;;;;;1.20;0.80;;;0.50;99.90;;;;;;2090458;28;20161;-69
2021/12/11 02:20:41;;;;;;;0.70;0.70;;;0.60;99.90;;;;;;2089276;28;20190;-71
2021/12/11 02:21:51;;;;;;;0.82;0.80;;;0.60;99.90;;;;;;2082817;28;20579;-70
2021/12/11 02:22:52;;;;;;;4.95;0.90;;;0.50;99.90;;;;;;2082553;28;20243;-70
2021/12/11 02:24:03;;;;;;;2.17;0.73;;;0.50;99.90;;;;;;2089488;28;20222;-70
2021/12/11 02:25:11;;;;;;;1.00;0.90;;;0.50;99.90;;;;;;2089442;28;20277;-70
2021/12/11 02:26:16;;;;;;;0.90;0.80;;;0.50;99.90;;;;;;2089487;28;20193;-68
2021/12/11 02:27:23;;;;;;;1.45;0.82;;;0.50;99.90;;;;;;2089214;28;20207;-72
2021/12/11 02:28:39;;;;;;;0.60;0.60;;;0.50;99.90;;;;;;2082115;28;20173;-67
2021/12/11 02:29:49;;;;;;;0.80;0.60;;;0.50;99.90;;;;;;2089531;28;20247;-69
2021/12/11 02:31:01;;;;;;;1.88;0.90;;;0.50;99.90;;;;;;2089087;28;20180;-69
2021/12/11 02:32:10;;;;;;;1.00;0.90;;;0.50;99.90;;;;;;2089498;28;20164;-68
2021/12/11 02:33:24;;;;;;;0.77;0.73;;;0.50;99.90;;;;;;2089327;28;20221;-68
2021/12/11 02:34:47;;;;;;;1.40;0.93;;;0.50;99.90;;;;;;2089498;28;20207;-69
2021/12/11 02:36:10;;;;;;;1.60;0.70;;;0.50;99.90;;;;;;2089970;28;20203;-69
2021/12/11 02:37:36;;;;;;;1.80;0.90;;;0.50;99.90;;;;;;2089851;28;20694;-69
2021/12/11 02:38:59;;;;;;;1.00;0.90;;;0.50;99.90;;;;;;2089353;28;20164;-69
2021/12/11 02:40:25;;;;;;;0.73;0.73;;;0.50;99.90;;;;;;2089492;28;20533;-68
2021/12/11 02:41:37;;;;;;;2.38;1.00;;;0.50;99.90;;;;;;2089919;28;20185;-69
2021/12/11 02:42:56;;;;;;;1.13;0.77;;;0.50;99.90;;;;;;2089994;28;20175;-69
2021/12/11 02:44:07;;;;;;;3.17;1.10;;;0.50;99.90;;;;;;2089825;28;20256;-69
2021/12/11 02:45:29;;;;;;;1.20;0.90;;;0.50;99.90;;;;;;2089887;28;20179;-68
2021/12/11 02:46:45;;;;;;;1.15;0.80;;;0.50;99.90;;;;;;2089898;28;20581;-69
2021/12/11 02:47:58;;;;;;;0.80;0.80;;;0.40;99.90;;;;;;2089815;28;20302;-69
2021/12/11 02:49:36;;;;;;;1.63;0.80;;;0.40;99.90;;;;;;2090015;28;20169;-68
2021/12/11 02:50:52;;;;;;;1.23;0.90;;;0.40;99.90;;;;;;2089093;28;20160;-69
2021/12/11 02:52:16;;;;;;;1.40;0.95;;;0.40;99.90;;;;;;2082997;28;20283;-69
2021/12/11 02:53:35;;;;;;;0.98;0.93;;;0.40;99.90;;;;;;2084433;28;20167;-69
2021/12/11 02:54:56;;;;;;;0.95;0.80;;;0.40;99.90;;;;;;2089453;28;20179;-69
2021/12/11 02:56:21;;;;;;;1.10;1.00;;;0.40;99.90;;;;;;2089113;28;20164;-69
2021/12/11 02:57:43;;;;;;;1.20;0.90;;;0.40;99.90;;;;;;2089334;28;20271;-69
2021/12/11 02:58:51;;;;;;;2.45;0.73;;;0.30;99.90;;;;;;2087798;28;20172;-69
2021/12/11 02:59:53;;;;;;;2.13;1.10;;;0.30;99.90;;;;;;2089325;28;20168;-69
2021/12/11 03:01:22;;;;;;;1.23;0.95;;;0.40;99.90;;;;;;2088834;28;20191;-69
2021/12/11 03:02:30;;;;;;;0.80;0.80;;;0.40;99.90;;;;;;2081539;28;20223;-69
2021/12/11 03:03:37;;;;;;;1.20;0.95;;;0.40;99.90;;;;;;2089159;28;20282;-69
2021/12/11 03:04:48;;;;;;;2.17;0.90;;;0.40;99.90;;;;;;2088034;28;20180;-70
2021/12/11 03:05:59;;;;;;;2.72;1.05;;;0.40;99.90;;;;;;2081417;28;20539;-69
2021/12/11 03:07:04;;;;;;;1.08;0.98;;;0.40;99.90;;;;;;2081472;28;20170;-69
2021/12/11 03:08:08;;;;;;;1.00;0.77;;;0.40;99.90;;;;;;2081374;28;20250;-70
2021/12/11 03:09:14;;;;;;;1.55;0.90;;;0.50;99.90;;;;;;2081500;28;20188;-69
2021/12/11 03:10:18;;;;;;;1.20;0.80;;;0.50;99.90;;;;;;2081447;28;20165;-69
2021/12/11 03:11:23;;;;;;;1.23;0.90;;;0.50;99.90;;;;;;2081294;28;20204;-70
2021/12/11 03:12:25;;;;;;;0.80;0.80;;;0.50;99.90;;;;;;2081635;28;20165;-69
2021/12/11 03:13:29;;;;;;;1.30;0.90;;;0.50;99.90;;;;;;2089100;28;20242;-70
2021/12/11 03:14:32;;;;;;;1.35;0.90;;;0.50;99.90;;;;;;2088992;28;20172;-70
2021/12/11 03:15:34;;;;;;;0.60;0.60;;;0.50;99.90;;;;;;2089043;28;20177;-69
2021/12/11 03:16:36;;;;;;;1.67;0.90;;;0.50;99.90;;;;;;2088508;28;20203;-70
2021/12/11 03:17:38;;;;;;;1.23;0.65;;;0.50;99.90;;;;;;2088943;28;20204;-69
2021/12/11 03:18:38;;;;;;;0.60;0.60;;;0.50;99.90;;;;;;2088957;28;20184;-70
2021/12/11 03:19:43;;;;;;;0.83;0.80;;;0.50;99.90;;;;;;2081497;28;20284;-70
2021/12/11 03:20:46;;;;;;;0.70;0.60;;;0.50;99.90;;;;;;2088950;28;20173;-69
2021/12/11 03:21:48;;;;;;;2.30;0.90;;;0.50;99.90;;;;;;2088201;28;20250;-69
2021/12/11 03:22:50;;;;;;;1.45;0.60;;;0.50;99.90;;;;;;2081380;28;20200;-69
2021/12/11 03:23:52;;;;;;;1.00;0.90;;;0.50;99.90;;;;;;2089120;28;20188;-70
2021/12/11 03:24:54;;;;;;;0.70;0.70;;;0.50;99.90;;;;;;2088790;28;20184;-70
2021/12/11 03:25:54;;;;;;;0.70;0.63;;;0.50;99.90;;;;;;2081424;28;20189;-69
2021/12/11 03:26:56;;;;;;;0.90;0.80;;;0.50;99.90;;;;;;2088960;28;20188;-70
2021/12/11 03:27:57;;;;;;;0.80;0.80;;;0.50;99.90;;;;;;2080567;28;20236;-70
2021/12/11 03:28:58;;;;;;;0.98;0.80;;;0.50;99.90;;;;;;2072609;28;20196;-70
2021/12/11 03:29:59;;;;;;;1.17;0.90;;;0.50;99.90;;;;;;2080723;28;20177;-70
2021/12/11 03:31:03;;;;;;;0.73;0.70;;;0.50;99.90;;;;;;2081364;28;20184;-70
2021/12/11 03:32:07;;;;;;;0.50;0.50;;;0.50;99.90;;;;;;2089162;28;20186;-70
2021/12/11 03:33:14;;;;;;;0.77;0.70;;;0.50;99.90;;;;;;2088433;28;20169;-70
2021/12/11 03:34:21;;;;;;;4.15;0.88;;;0.50;99.90;;;;;;2089108;28;20161;-69
2021/12/11 03:35:23;;;;;;;2.67;0.80;;;0.50;99.90;;;;;;2088271;28;20165;-69
2021/12/11 03:36:26;;;;;;;0.98;0.65;;;0.50;99.90;;;;;;2089120;28;20275;-70
2021/12/11 03:37:27;;;;;;;0.52;0.52;;;0.50;99.90;;;;;;2080617;28;20177;-70
2021/12/11 03:38:28;;;;;;;0.60;0.60;;;0.50;99.90;;;;;;2080806;28;20177;-70
2021/12/11 03:39:39;;;;;;;0.95;0.60;;;0.50;99.90;;;;;;2088918;28;20258;-70
2021/12/11 03:40:41;;;;;;;1.15;0.60;;;0.50;99.90;;;;;;2080788;28;20161;-70
2021/12/11 03:41:42;;;;;;;0.60;0.60;;;0.50;99.90;;;;;;2072728;28;20181;-70
2021/12/11 03:42:46;;;;;;;0.50;0.50;;;0.50;99.90;;;;;;2080609;28;20689;-71
2021/12/11 03:43:48;;;;;;;1.83;0.70;;;0.50;99.90;;;;;;2088532;28;20683;-70
2021/12/11 03:44:49;;;;;;;0.50;0.50;;;0.50;99.90;;;;;;2080928;28;20212;-70
2021/12/11 03:45:54;;;;;;;0.60;0.50;;;0.50;99.90;;;;;;2088849;28;20230;-70
2021/12/11 03:46:55;;;;;;;0.60;0.60;;;0.50;99.90;;;;;;2089506;28;20180;-71
2021/12/11 03:48:06;;;;;;;0.50;0.50;;;0.50;99.90;;;;;;2089447;28;20583;-71
2021/12/11 03:49:13;;;;;;;0.60;0.50;;;0.50;99.90;;;;;;2089019;28;20165;-70
2021/12/11 03:50:17;;;;;;;0.60;0.60;;;0.50;99.90;;;;;;2088766;28;20172;-70
2021/12/11 03:51:31;;;;;;;0.52;0.52;;;0.50;99.90;;;;;;2089463;28;20206;-70
2021/12/11 03:52:32;;;;;;;0.52;0.52;;;0.40;99.90;;;;;;2089398;28;20233;-69
2021/12/11 03:53:32;;;;;;;1.00;0.50;;;0.40;99.90;;;;;;2088812;28;20195;-70
2021/12/11 03:54:39;;;;;;;0.50;0.50;;;0.50;99.90;;;;;;2088855;28;20180;-70
2021/12/11 03:55:47;;;;;;;0.40;0.40;;;0.50;99.90;;;;;;2088582;28;20510;-70
2021/12/11 03:56:49;;;;;;;0.40;0.40;;;0.50;99.90;;;;;;2081626;28;20257;-70
2021/12/11 03:57:57;;;;;;;0.45;0.45;;;0.50;99.90;;;;;;2080761;28;20621;-69
2021/12/11 03:58:58;;;;;;;0.40;0.40;;;0.50;99.90;;;;;;2088914;28;20576;-70
2021/12/11 03:59:59;;;;;;;0.70;0.40;;;0.50;99.90;;;;;;2088544;28;20197;-70
2021/12/11 04:01:08;;;;;;;0.40;0.40;;;0.40;99.90;;;;;;2080683;28;20428;-70
2021/12/11 04:02:12;;;;;;;0.50;0.40;;;0.40;99.90;;;;;;2088957;28;20184;-69
2021/12/11 04:03:16;;;;;;;0.40;0.40;;;0.40;99.90;;;;;;2089451;28;20176;-70
2021/12/11 04:04:38;;;;;;;0.22;0.22;;;0.40;99.90;;;;;;2088814;28;20212;-71
2021/12/11 04:05:43;;;;;;;0.43;0.40;;;0.40;99.90;;;;;;2075191;28;20922;-70
2021/12/11 04:06:44;;;;;;;0.30;0.30;;;0.40;99.90;;;;;;2073357;28;20181;-70
2021/12/11 04:07:48;;;;;;;0.57;0.30;;;0.40;99.90;;;;;;2088798;28;20203;-70
2021/12/11 04:08:52;;;;;;;0.30;0.30;;;0.40;99.90;;;;;;2088664;28;20719;-70
2021/12/11 04:09:53;;;;;;;0.47;0.47;;;0.40;99.90;;;;;;2088707;28;20176;-70
2021/12/11 04:10:55;;;;;;;0.43;0.43;;;0.40;99.90;;;;;;2089297;28;20223;-71
2021/12/11 04:11:56;;;;;;;0.40;0.40;;;0.40;99.90;;;;;;2088840;28;20226;-71
2021/12/11 04:13:01;;;;;;;0.30;0.30;;;0.40;99.90;;;;;;2080725;28;20196;-69
2021/12/11 04:14:16;;;;;;;0.35;0.35;;;0.40;99.90;;;;;;2088883;28;20214;-70
2021/12/11 04:15:17;;;;;;;0.35;0.35;;;0.40;99.90;;;;;;2089191;28;20660;-70
2021/12/11 04:16:19;;;;;;;0.50;0.50;;;0.50;99.90;;;;;;2089267;28;20181;-70
2021/12/11 04:17:24;;;;;;;1.17;0.50;;;0.40;99.90;;;;;;2088612;28;20197;-69
2021/12/11 04:18:25;;;;;;;0.85;0.80;;;0.40;99.90;;;;;;2088883;28;20246;-70
2021/12/11 04:19:27;;;;;;;1.60;0.90;;;0.40;99.90;;;;;;2088796;28;20189;-70
2021/12/11 04:20:29;;;;;;;1.50;0.70;;;0.40;99.90;;;;;;2088667;28;20177;-70
2021/12/11 04:21:31;;;;;;;0.63;0.47;;;0.40;99.90;;;;;;2089281;28;20188;-70
2021/12/11 04:22:32;;;;;;;0.40;0.40;;;0.40;99.90;;;;;;2089910;28;20180;-70
2021/12/11 04:23:33;;;;;;;0.37;0.37;;;0.40;99.90;;;;;;2089840;28;20666;-70
2021/12/11 04:24:38;;;;;;;0.30;0.30;;;0.40;99.90;;;;;;2089825;28;20583;-70
2021/12/11 04:25:43;;;;;;;0.30;0.30;;;0.40;99.90;;;;;;2089405;28;20556;-69
2021/12/11 04:26:45;;;;;;;0.30;0.30;;;0.40;99.90;;;;;;2089245;28;20267;-69
2021/12/11 04:27:47;;;;;;;0.28;0.28;;;0.40;99.90;;;;;;2089224;28;20215;-70
2021/12/11 04:28:49;;;;;;;0.52;0.40;;;0.30;99.90;;;;;;2088678;28;20665;-70
2021/12/11 04:29:50;;;;;;;0.45;0.35;;;0.30;99.90;;;;;;2080458;28;20689;-69
2021/12/11 04:31:02;;;;;;;0.30;0.30;;;0.30;99.90;;;;;;2088625;28;20203;-69
2021/12/11 04:32:04;;;;;;;0.40;0.40;;;0.30;99.90;;;;;;2088770;28;20169;-70
2021/12/11 04:33:06;;;;;;;0.30;0.30;;;0.30;99.90;;;;;;2081511;28;20185;-69
2021/12/11 04:34:08;;;;;;;0.30;0.30;;;0.30;99.90;;;;;;2082196;28;20181;-69
2021/12/11 04:35:12;;;;;;;0.22;0.22;;;0.30;99.90;;;;;;2090488;28;20187;-68
2021/12/11 04:36:21;;;;;;;0.30;0.30;;;0.30;99.90;;;;;;2090886;28;20559;-71
2021/12/11 04:37:27;;;;;;;0.40;0.40;;;0.40;99.90;;;;;;2090799;28;20234;-71
2021/12/11 04:38:28;;;;;;;0.40;0.40;;;0.40;99.90;;;;;;2090212;28;20161;-70
2021/12/11 04:39:35;;;;;;;1.23;0.50;;;0.40;99.90;;;;;;2090219;28;20274;-70
2021/12/11 04:40:40;;;;;;;0.45;0.40;;;0.40;99.90;;;;;;2081803;28;20236;-70
2021/12/11 04:41:55;;;;;;;0.40;0.40;;;0.40;99.90;;;;;;2083506;28;20219;-70
2021/12/11 04:43:05;;;;;;;0.57;0.47;;;0.40;99.70;;;;;;2090302;28;20942;-69
2021/12/11 04:44:14;;;;;;;0.30;0.30;;;0.30;99.90;;;;;;2090476;28;20172;-69
2021/12/11 04:45:39;;;;;;;0.40;0.40;;;0.30;99.90;;;;;;2090866;28;20167;-69
2021/12/11 04:46:40;;;;;;;0.40;0.40;;;0.30;99.90;;;;;;2090243;28;20187;-69
2021/12/11 04:47:56;;;;;;;0.50;0.50;;;0.30;99.80;;;;;;2081962;28;20227;-70
2021/12/11 04:49:07;;;;;;;0.40;0.40;;;0.30;99.90;;;;;;2084074;28;20303;-69
2021/12/11 04:50:29;;;;;;;0.43;0.43;;;0.30;99.70;;;;;;2085428;28;20184;-69
2021/12/11 04:51:45;;;;;;;0.60;0.55;;;0.30;99.70;;;;;;2085993;28;20203;-69
2021/12/11 04:52:55;;;;;;;0.40;0.40;;;0.20;99.60;;;;;;2090365;28;20180;-70
2021/12/11 04:55:31;;;;;;;0.52;0.52;;;0.20;99.80;;;;;;2090242;28;20187;-69
2021/12/11 05:06:30;;;;;;;1.02;0.40;;;0.20;99.80;;;;;;2090222;28;20275;-69
2021/12/11 05:09:56;;;;;;;0.60;0.52;;;0.20;99.90;;;;;;2090357;28;20157;-69
2021/12/11 05:11:02;;;;;;;0.55;0.55;;;0.20;99.90;;;;;;2090030;28;20580;-70
2021/12/11 05:12:31;;;;;;;0.35;0.35;;;0.20;99.90;;;;;;2090250;28;20164;-69
2021/12/11 05:13:33;;;;;;;1.33;0.50;;;0.20;99.90;;;;;;2090690;28;20546;-70
2021/12/11 05:14:35;;;;;;;0.90;0.80;;;0.20;99.90;;;;;;2090104;28;20180;-69
2021/12/11 05:15:42;;;;;;;1.13;0.60;;;0.20;99.90;;;;;;2089972;28;20185;-70
2021/12/11 05:16:44;;;;;;;0.50;0.50;;;0.20;99.90;;;;;;2090619;28;20172;-70
2021/12/11 05:17:45;;;;;;;0.60;0.60;;;0.20;99.90;;;;;;2089825;28;20200;-69
2021/12/11 05:18:46;;;;;;;0.40;0.40;;;0.10;99.90;;;;;;2089992;28;20249;-69
2021/12/11 05:19:48;;;;;;;0.50;0.50;;;0.10;99.90;;;;;;2089802;28;20815;-69
2021/12/11 05:20:53;;;;;;;0.75;0.52;;;0.10;99.90;;;;;;2081744;28;20222;-70
2021/12/11 05:21:54;;;;;;;0.98;0.70;;;0.10;99.90;;;;;;2082399;28;20257;-70
2021/12/11 05:22:55;;;;;;;0.75;0.50;;;0.20;99.90;;;;;;2089959;28;20182;-69
2021/12/11 05:23:56;;;;;;;0.80;0.70;;;0.10;99.90;;;;;;2089934;28;20268;-70
2021/12/11 05:24:57;;;;;;;0.50;0.50;;;0.10;99.90;;;;;;2089908;28;20180;-70
2021/12/11 05:25:58;;;;;;;1.00;0.60;;;0.10;99.90;;;;;;2090405;28;20533;-69
2021/12/11 05:26:59;;;;;;;0.35;0.30;;;0.10;99.90;;;;;;2089742;28;20180;-68
2021/12/11 05:28:00;;;;;;;0.45;0.45;;;0.10;99.90;;;;;;2089730;28;20207;-69
2021/12/11 05:29:01;;;;;;;0.50;0.50;;;0.10;99.90;;;;;;2089835;28;20284;-69
2021/12/11 05:30:11;;;;;;;1.67;0.50;;;0.10;99.90;;;;;;2089603;28;20557;-70
2021/12/11 05:31:12;;;;;;;0.40;0.40;;;0.10;99.90;;;;;;2090395;28;20165;-70
2021/12/11 05:32:18;;;;;;;0.60;0.60;;;0.10;99.90;;;;;;2089721;28;20343;-69
2021/12/11 05:33:21;;;;;;;0.50;0.50;;;0.10;99.90;;;;;;2089816;28;20156;-69
2021/12/11 05:34:23;;;;;;;0.50;0.50;;;0.10;99.90;;;;;;2089675;28;20187;-69
2021/12/11 05:35:23;;;;;;;0.57;0.50;;;0.10;99.90;;;;;;2089713;28;20184;-69
2021/12/11 05:36:27;;;;;;;2.10;0.70;;;0.10;99.90;;;;;;2090229;28;20279;-70
2021/12/11 05:37:28;;;;;;;0.55;0.52;;;0.00;99.90;;;;;;2089583;28;20199;-69
2021/12/11 05:38:28;;;;;;;1.63;0.67;;;0.00;99.90;;;;;;2081765;28;20180;-69
2021/12/11 05:39:29;;;;;;;1.97;0.90;;;0.00;99.90;;;;;;2081506;28;20228;-69
2021/12/11 05:40:33;;;;;;;2.60;0.77;;;0.00;99.90;;;;;;2089610;28;20189;-70
2021/12/11 05:41:35;;;;;;;0.93;0.73;;;0.00;99.90;;;;;;2090272;28;20271;-70
2021/12/11 05:42:36;;;;;;;0.90;0.80;;;0.00;99.90;;;;;;2090237;28;20657;-69
2021/12/11 05:43:38;;;;;;;0.70;0.70;;;0.00;99.90;;;;;;2089729;28;20207;-69
2021/12/11 05:44:40;;;;;;;0.70;0.45;;;0.00;99.90;;;;;;2081129;28;20920;-70
2021/12/11 05:45:41;;;;;;;0.60;0.60;;;0.00;99.90;;;;;;2089032;28;20199;-70
2021/12/11 05:46:42;;;;;;;0.68;0.60;;;0.00;99.90;;;;;;2089469;28;20307;-69
2021/12/11 05:47:43;;;;;;;0.77;0.43;;;-0.10;99.90;;;;;;2089591;28;20577;-69
2021/12/11 05:48:49;;;;;;;0.40;0.40;;;-0.10;99.90;;;;;;2089537;28;20242;-69
2021/12/11 05:49:50;;;;;;;0.40;0.40;;;-0.10;99.90;;;;;;2090252;28;20260;-69
2021/12/11 05:50:57;;;;;;;0.40;0.40;;;0.00;99.90;;;;;;2089396;28;20181;-69
2021/12/11 05:52:00;;;;;;;0.47;0.47;;;0.00;99.90;;;;;;2089661;28;20172;-70
2021/12/11 05:53:02;;;;;;;0.60;0.60;;;0.00;99.90;;;;;;2090122;28;20208;-71
2021/12/11 05:54:05;;;;;;;0.40;0.40;;;0.00;99.90;;;;;;2089656;28;20183;-70
2021/12/11 05:55:10;;;;;;;0.50;0.50;;;0.00;99.90;;;;;;2089493;28;20678;-70
2021/12/11 05:56:13;;;;;;;0.35;0.35;;;0.00;99.90;;;;;;2089587;28;20234;-71
2021/12/11 05:57:16;;;;;;;0.30;0.30;;;0.00;99.90;;;;;;2089360;28;20585;-69
2021/12/11 05:58:36;;;;;;;0.30;0.30;;;0.00;99.90;;;;;;2081684;28;20181;-70
2021/12/11 05:59:38;;;;;;;0.40;0.40;;;0.00;99.90;;;;;;2083746;28;20272;-70
2021/12/11 06:00:46;;;;;;;1.10;0.55;;;-0.10;99.90;;;;;;2083551;28;20232;-69
2021/12/11 06:02:12;;;;;;;0.30;0.30;;;-0.10;99.90;;;;;;2089478;28;20176;-70
2021/12/11 06:03:14;;;;;;;0.43;0.35;;;0.00;99.90;;;;;;2089773;28;20163;-69
2021/12/11 06:04:24;;;;;;;0.25;0.25;;;-0.10;99.90;;;;;;2089581;28;20715;-71
2021/12/11 06:05:25;;;;;;;0.45;0.40;;;-0.10;99.90;;;;;;2089608;28;20159;-69
2021/12/11 06:06:26;;;;;;;0.38;0.38;;;-0.10;99.90;;;;;;2089401;28;20669;-70
2021/12/11 06:07:30;;;;;;;0.30;0.30;;;-0.10;99.90;;;;;;2081010;28;20176;-70
2021/12/11 06:08:34;;;;;;;0.40;0.40;;;0.00;99.90;;;;;;2089542;28;20179;-70
2021/12/11 06:09:38;;;;;;;0.30;0.30;;;0.00;99.90;;;;;;2090028;28;20188;-70